Orlando, Florida
Current Conditions -  °F | °C
As of 8:53 AM on Saturday 01 Nov 2014 (Local Time) from KORL Reporting Station
Few Clouds Few Clouds  
Wind Chill: 57°   Ceiling: Unl
Heat Index: 57°   Visibility: 10mi
Dew Point: 46°   Wind: 14mph
Humidity: 67%   Direction: 310°NW
Pressure: 29.99"   Gusts: 22mph
Location:  28.54°N, 81.38°W
Report Text: KORL 011253Z 31012G19KT 10SM FEW026 14/08 A2999 RMK AO2 SLP159 T01390078
Loading
Personal Weather Stations






























Interactive Weather Map New forecast layout! Learn more

10-Day Weather Forecast

Advertisements
Track Severe Weather on mobile